Time,TemperatureF,DewpointF,PressureIn,WindDirection,WindDirectionDegrees,WindSpeedMPH,WindSpeedGustMPH,Humidity,HourlyPrecipIn,Conditions,Clouds,dailyrainin,SolarRadiationWatts/m^2,SoftwareType,DateUTC
2013-03-07 00:00:00,37.2,28.7,29.94,ENE,73,0.0,1.0,71,0.00,,,0.00,0,Wunderground v.1.15,2013-03-07 07:00:00,
2013-03-07 00:05:00,37.1,28.2,29.94,ENE,73,0.0,1.0,70,0.00,,,0.00,0,Wunderground v.1.15,2013-03-07 07:05:00,
2013-03-07 00:15:00,37.0,28.1,29.94,ENE,74,0.0,0.0,70,0.00,,,0.00,0,Wunderground v.1.15,2013-03-07 07:15:00,
2013-03-07 00:20:00,36.9,28.0,29.94,ENE,73,0.0,0.0,70,0.00,,,0.00,0,Wunderground v.1.15,2013-03-07 07:20:00,
2013-03-07 00:25:00,36.8,28.3,29.93,ENE,74,0.0,0.0,71,0.00,,,0.00,0,Wunderground v.1.15,2013-03-07 07:25:00,
2013-03-07 00:35:00,36.8,28.3,29.94,ENE,74,1.0,1.0,71,0.00,,,0.00,0,Wunderground v.1.15,2013-03-07 07:35:00,
2013-03-07 00:45:00,36.4,27.5,29.94,ENE,73,0.0,0.0,70,0.00,,,0.00,0,Wunderground v.1.15,2013-03-07 07:45:00,
2013-03-07 00:55:00,36.2,27.4,29.94,ENE,73,0.0,0.0,70,0.00,,,0.00,0,Wunderground v.1.15,2013-03-07 07:55:00,
2013-03-07 01:00:00,36.1,27.3,29.94,ENE,73,0.0,0.0,70,0.00,,,0.00,0,Wunderground v.1.15,2013-03-07 08:00:00,
2013-03-07 01:10:00,36.1,27.6,29.94,ENE,73,0.0,2.0,71,0.00,,,0.00,0,Wunderground v.1.15,2013-03-07 08:10:00,
2013-03-07 01:20:00,36.0,27.2,29.95,ENE,73,0.0,1.0,70,0.00,,,0.00,0,Wunderground v.1.15,2013-03-07 08:20:00,
2013-03-07 01:30:00,35.9,27.4,29.95,ENE,73,0.0,1.0,71,0.00,,,0.00,0,Wunderground v.1.15,2013-03-07 08:30:00,
2013-03-07 01:35:00,35.6,26.8,29.94,ENE,73,0.0,1.0,70,0.00,,,0.00,0,Wunderground v.1.15,2013-03-07 08:35:00,
2013-03-07 01:45:00,35.3,27.2,29.95,ENE,73,0.0,1.0,72,0.00,,,0.00,0,Wunderground v.1.15,2013-03-07 08:45:00,
2013-03-07 01:50:00,35.1,27.0,29.95,ENE,73,0.0,1.0,72,0.00,,,0.00,0,Wunderground v.1.15,2013-03-07 08:50:00,
2013-03-07 02:00:00,35.2,27.4,29.95,ENE,73,0.0,1.0,73,0.00,,,0.00,0,Wunderground v.1.15,2013-03-07 09:00:00,
2013-03-07 02:10:00,34.9,27.1,29.95,East,79,0.0,1.0,73,0.00,,,0.00,0,Wunderground v.1.15,2013-03-07 09:10:00,
2013-03-07 02:20:00,35.0,28.2,29.94,East,79,0.0,1.0,76,0.00,,,0.00,0,Wunderground v.1.15,2013-03-07 09:20:00,
2013-03-07 02:25:00,34.7,27.3,29.94,ENE,78,0.0,1.0,74,0.00,,,0.00,0,Wunderground v.1.15,2013-03-07 09:25:00,
2013-03-07 02:30:00,34.5,27.1,29.94,ENE,78,0.0,1.0,74,0.00,,,0.00,0,Wunderground v.1.15,2013-03-07 09:30:00,
2013-03-07 02:40:00,34.5,27.4,29.94,East,79,0.0,2.0,75,0.00,,,0.00,0,Wunderground v.1.15,2013-03-07 09:40:00,
2013-03-07 02:50:00,34.3,26.9,29.93,East,79,1.0,1.0,74,0.00,,,0.00,0,Wunderground v.1.15,2013-03-07 09:50:00,
2013-03-07 03:00:00,34.1,26.7,29.94,East,79,0.0,1.0,74,0.00,,,0.00,0,Wunderground v.1.15,2013-03-07 10:00:00,
2013-03-07 03:05:00,34.4,27.6,29.94,East,79,0.0,1.0,76,0.00,,,0.00,0,Wunderground v.1.15,2013-03-07 10:05:00,
2013-03-07 03:15:00,34.2,27.1,29.94,SE,139,0.0,2.0,75,0.00,,,0.00,0,Wunderground v.1.15,2013-03-07 10:15:00,
2013-03-07 03:25:00,34.1,27.0,29.94,SSE,156,0.0,0.0,75,0.00,,,0.00,0,Wunderground v.1.15,2013-03-07 10:25:00,
2013-03-07 03:30:00,34.0,26.6,29.94,SSE,156,0.0,0.0,74,0.00,,,0.00,0,Wunderground v.1.15,2013-03-07 10:30:00,
2013-03-07 03:40:00,33.9,26.5,29.94,SSE,156,0.0,0.0,74,0.00,,,0.00,0,Wunderground v.1.15,2013-03-07 10:40:00,
2013-03-07 03:45:00,33.8,26.7,29.95,SE,138,0.0,0.0,75,0.00,,,0.00,0,Wunderground v.1.15,2013-03-07 10:45:00,
2013-03-07 03:55:00,33.7,26.3,29.94,SE,138,0.0,0.0,74,0.00,,,0.00,0,Wunderground v.1.15,2013-03-07 10:55:00,
2013-03-07 04:00:00,33.7,26.6,29.95,SSE,164,0.0,0.0,75,0.00,,,0.00,0,Wunderground v.1.15,2013-03-07 11:00:00,
2013-03-07 04:05:00,33.6,26.5,29.95,SSE,164,0.0,1.0,75,0.00,,,0.00,0,Wunderground v.1.15,2013-03-07 11:05:00,
2013-03-07 04:15:00,33.2,26.1,29.95,SSE,163,0.0,1.0,75,0.00,,,0.00,0,Wunderground v.1.15,2013-03-07 11:15:00,
2013-03-07 04:25:00,33.0,26.3,29.95,SSE,163,0.0,1.0,76,0.00,,,0.00,0,Wunderground v.1.15,2013-03-07 11:25:00,
2013-03-07 04:30:00,32.6,25.9,29.95,SSE,163,0.0,1.0,76,0.00,,,0.00,0,Wunderground v.1.15,2013-03-07 11:30:00,
2013-03-07 04:40:00,32.5,25.8,29.95,SSE,163,0.0,1.0,76,0.00,,,0.00,0,Wunderground v.1.15,2013-03-07 11:40:00,
2013-03-07 04:50:00,32.5,25.8,29.96,SSE,163,0.0,1.0,76,0.00,,,0.00,0,Wunderground v.1.15,2013-03-07 11:50:00,
2013-03-07 05:00:00,32.5,26.1,29.96,SSE,163,0.0,1.0,77,0.00,,,0.00,0,Wunderground v.1.15,2013-03-07 12:00:00,
2013-03-07 05:05:00,32.5,25.8,29.97,SSE,163,0.0,1.0,76,0.00,,,0.00,0,Wunderground v.1.15,2013-03-07 12:05:00,
2013-03-07 05:10:00,32.4,25.7,29.97,SSE,163,0.0,1.0,76,0.00,,,0.00,0,Wunderground v.1.15,2013-03-07 12:10:00,
2013-03-07 05:20:00,32.2,25.5,29.97,SSE,163,0.0,1.0,76,0.00,,,0.00,0,Wunderground v.1.15,2013-03-07 12:20:00,
2013-03-07 05:25:00,32.1,25.1,29.97,SSE,163,0.0,1.0,75,0.00,,,0.00,0,Wunderground v.1.15,2013-03-07 12:25:00,
2013-03-07 05:35:00,31.9,24.9,29.97,SSE,163,0.0,1.0,75,0.00,,,0.00,0,Wunderground v.1.15,2013-03-07 12:35:00,
2013-03-07 05:45:00,31.8,25.1,29.98,SSE,163,0.0,1.0,76,0.00,,,0.00,0,Wunderground v.1.15,2013-03-07 12:45:00,
2013-03-07 05:55:00,31.6,24.9,29.98,SSE,163,0.0,1.0,76,0.00,,,0.00,0,Wunderground v.1.15,2013-03-07 12:55:00,
2013-03-07 06:05:00,31.4,24.7,29.98,SSE,163,0.0,1.0,76,0.00,,,0.00,0,Wunderground v.1.15,2013-03-07 13:05:00,
2013-03-07 06:15:00,31.2,24.8,29.98,SSE,163,0.0,0.0,77,0.00,,,0.00,0,Wunderground v.1.15,2013-03-07 13:15:00,
2013-03-07 06:20:00,31.3,24.9,29.99,SSE,163,0.0,0.0,77,0.00,,,0.00,0,Wunderground v.1.15,2013-03-07 13:20:00,
2013-03-07 06:30:00,31.2,24.8,29.99,SSE,163,0.0,0.0,77,0.00,,,0.00,0,Wunderground v.1.15,2013-03-07 13:30:00,
2013-03-07 06:40:00,31.2,25.1,29.99,SSE,163,0.0,0.0,78,0.00,,,0.00,9,Wunderground v.1.15,2013-03-07 13:40:00,
2013-03-07 06:50:00,31.0,24.9,29.99,SSE,164,0.0,0.0,78,0.00,,,0.00,23,Wunderground v.1.15,2013-03-07 13:50:00,
2013-03-07 07:00:00,31.0,24.9,29.99,SSE,163,0.0,0.0,78,0.00,,,0.00,35,Wunderground v.1.15,2013-03-07 14:00:00,
2013-03-07 07:05:00,31.0,24.9,29.99,SSE,162,0.0,0.0,78,0.00,,,0.00,39,Wunderground v.1.15,2013-03-07 14:05:00,
2013-03-07 07:10:00,31.0,24.6,29.99,SSE,163,0.0,0.0,77,0.00,,,0.00,40,Wunderground v.1.15,2013-03-07 14:10:00,
2013-03-07 07:20:00,31.2,24.8,30.00,SSE,163,0.0,0.0,77,0.00,,,0.00,40,Wunderground v.1.15,2013-03-07 14:20:00,
2013-03-07 07:25:00,31.5,25.1,30.00,SSE,163,0.0,0.0,77,0.00,,,0.00,37,Wunderground v.1.15,2013-03-07 14:25:00,
2013-03-07 07:30:00,31.6,24.9,30.00,SSE,163,0.0,0.0,76,0.00,,,0.00,40,Wunderground v.1.15,2013-03-07 14:30:00,
2013-03-07 07:40:00,31.8,24.8,30.00,SSE,163,0.0,0.0,75,0.00,,,0.00,51,Wunderground v.1.15,2013-03-07 14:40:00,
2013-03-07 07:45:00,32.0,25.3,30.00,SSE,163,0.0,0.0,76,0.00,,,0.00,54,Wunderground v.1.15,2013-03-07 14:45:00,
2013-03-07 07:50:00,32.1,25.4,30.00,SSE,163,0.0,0.0,76,0.00,,,0.00,54,Wunderground v.1.15,2013-03-07 14:50:00,
2013-03-07 08:00:00,32.6,25.9,30.00,SSE,163,0.0,0.0,76,0.00,,,0.00,46,Wunderground v.1.15,2013-03-07 15:00:00,
2013-03-07 08:10:00,32.6,25.2,30.00,SSE,163,0.0,0.0,74,0.00,,,0.00,54,Wunderground v.1.15,2013-03-07 15:10:00,
2013-03-07 08:15:00,33.0,25.9,30.00,SSE,163,0.0,0.0,75,0.00,,,0.00,128,Wunderground v.1.15,2013-03-07 15:15:00,
2013-03-07 08:20:00,34.1,27.6,30.00,SSE,162,0.0,0.0,77,0.00,,,0.00,299,Wunderground v.1.15,2013-03-07 15:20:00,
2013-03-07 08:30:00,36.3,27.8,29.99,SSE,159,0.0,0.0,71,0.00,,,0.00,339,Wunderground v.1.15,2013-03-07 15:30:00,
2013-03-07 08:35:00,37.2,28.7,30.00,ESE,111,1.0,2.0,71,0.00,,,0.00,357,Wunderground v.1.15,2013-03-07 15:35:00,
2013-03-07 08:40:00,37.3,28.8,29.99,ESE,110,1.0,1.0,71,0.00,,,0.00,383,Wunderground v.1.15,2013-03-07 15:40:00,
2013-03-07 08:45:00,37.6,28.7,29.99,ESE,108,1.0,1.0,70,0.00,,,0.00,397,Wunderground v.1.15,2013-03-07 15:45:00,
2013-03-07 08:50:00,38.1,29.2,29.99,East,96,1.0,3.0,70,0.00,,,0.00,329,Wunderground v.1.15,2013-03-07 15:50:00,
2013-03-07 09:00:00,38.6,28.6,29.98,ENE,75,2.0,2.0,67,0.00,,,0.00,415,Wunderground v.1.15,2013-03-07 16:00:00,
2013-03-07 09:05:00,39.3,27.4,29.98,ENE,75,1.0,2.0,62,0.00,,,0.00,408,Wunderground v.1.15,2013-03-07 16:05:00,
2013-03-07 09:15:00,40.7,27.9,29.98,ENE,75,1.0,1.0,60,0.00,,,0.00,492,Wunderground v.1.15,2013-03-07 16:15:00,
2013-03-07 09:20:00,42.2,28.0,29.97,ENE,74,0.0,0.0,57,0.00,,,0.00,499,Wunderground v.1.15,2013-03-07 16:20:00,
2013-03-07 09:25:00,42.8,25.4,29.97,ENE,75,0.0,1.0,50,0.00,,,0.00,519,Wunderground v.1.15,2013-03-07 16:25:00,
2013-03-07 09:35:00,43.8,24.3,29.96,East,84,1.0,3.0,46,0.00,,,0.00,527,Wunderground v.1.15,2013-03-07 16:35:00,
2013-03-07 09:45:00,45.2,25.1,29.96,ESE,102,1.0,2.0,45,0.00,,,0.00,591,Wunderground v.1.15,2013-03-07 16:45:00,
2013-03-07 09:50:00,46.3,26.6,29.96,ESE,107,1.0,2.0,46,0.00,,,0.00,633,Wunderground v.1.15,2013-03-07 16:50:00,
2013-03-07 09:55:00,46.3,25.0,29.95,SW,218,1.0,2.0,43,0.00,,,0.00,636,Wunderground v.1.15,2013-03-07 16:55:00,
2013-03-07 10:05:00,46.9,26.1,29.95,SSW,201,1.0,1.0,44,0.00,,,0.00,582,Wunderground v.1.15,2013-03-07 17:05:00,
2013-03-07 10:15:00,47.6,25.6,29.94,SW,222,1.0,3.0,42,0.00,,,0.00,561,Wunderground v.1.15,2013-03-07 17:15:00,
2013-03-07 10:20:00,48.7,25.4,29.94,SW,222,2.0,2.0,40,0.00,,,0.00,561,Wunderground v.1.15,2013-03-07 17:20:00,
2013-03-07 10:30:00,50.1,26.1,29.93,SSW,210,1.0,3.0,39,0.00,,,0.00,628,Wunderground v.1.15,2013-03-07 17:30:00,
2013-03-07 10:40:00,51.8,25.7,29.93,SSW,207,1.0,1.0,36,0.00,,,0.00,666,Wunderground v.1.15,2013-03-07 17:40:00,
2013-03-07 10:50:00,54.0,25.5,29.92,SSW,197,0.0,3.0,33,0.00,,,0.00,643,Wunderground v.1.15,2013-03-07 17:50:00,
2013-03-07 10:55:00,54.2,24.2,29.92,SSW,197,1.0,3.0,31,0.00,,,0.00,694,Wunderground v.1.15,2013-03-07 17:55:00,
2013-03-07 11:00:00,54.7,23.8,29.92,South,171,1.0,3.0,30,0.00,,,0.00,717,Wunderground v.1.15,2013-03-07 18:00:00,
2013-03-07 11:05:00,54.6,25.3,29.91,SW,225,2.0,3.0,32,0.00,,,0.00,703,Wunderground v.1.15,2013-03-07 18:05:00,
2013-03-07 11:15:00,56.6,23.0,29.91,SW,221,3.0,6.0,27,0.00,,,0.00,722,Wunderground v.1.15,2013-03-07 18:15:00,
2013-03-07 11:20:00,56.8,22.2,29.91,SW,221,4.0,7.0,26,0.00,,,0.00,728,Wunderground v.1.15,2013-03-07 18:20:00,
2013-03-07 11:25:00,58.1,22.4,29.91,WSW,239,4.0,7.0,25,0.00,,,0.00,737,Wunderground v.1.15,2013-03-07 18:25:00,
2013-03-07 11:30:00,57.6,20.0,29.91,SSW,209,5.0,5.0,23,0.00,,,0.00,737,Wunderground v.1.15,2013-03-07 18:30:00,
2013-03-07 11:40:00,58.2,20.5,29.90,SW,226,5.0,6.0,23,0.00,,,0.00,744,Wunderground v.1.15,2013-03-07 18:40:00,
2013-03-07 11:50:00,58.7,22.0,29.90,SW,214,4.0,11.0,24,0.00,,,0.00,768,Wunderground v.1.15,2013-03-07 18:50:00,
2013-03-07 12:00:00,58.7,21.0,29.90,SW,217,7.0,7.0,23,0.00,,,0.00,793,Wunderground v.1.15,2013-03-07 19:00:00,
2013-03-07 12:05:00,58.5,20.8,29.89,South,191,6.0,7.0,23,0.00,,,0.00,601,Wunderground v.1.15,2013-03-07 19:05:00,
2013-03-07 12:15:00,58.3,20.6,29.89,SW,215,6.0,8.0,23,0.00,,,0.00,529,Wunderground v.1.15,2013-03-07 19:15:00,
2013-03-07 12:25:00,58.4,20.7,29.89,SSW,207,7.0,8.0,23,0.00,,,0.00,701,Wunderground v.1.15,2013-03-07 19:25:00,
2013-03-07 12:35:00,58.5,20.8,29.88,SW,228,8.0,8.0,23,0.00,,,0.00,643,Wunderground v.1.15,2013-03-07 19:35:00,
2013-03-07 12:45:00,58.8,22.0,29.88,SSW,209,6.0,8.0,24,0.00,,,0.00,684,Wunderground v.1.15,2013-03-07 19:45:00,
2013-03-07 12:50:00,58.9,20.1,29.87,SSW,202,4.0,5.0,22,0.00,,,0.00,789,Wunderground v.1.15,2013-03-07 19:50:00,
2013-03-07 12:55:00,59.4,20.5,29.87,WSW,242,5.0,8.0,22,0.00,,,0.00,795,Wunderground v.1.15,2013-03-07 19:55:00,
2013-03-07 13:05:00,58.7,21.0,29.87,SW,226,6.0,6.0,23,0.00,,,0.00,756,Wunderground v.1.15,2013-03-07 20:05:00,
2013-03-07 13:15:00,59.5,21.6,29.86,SSW,204,5.0,11.0,23,0.00,,,0.00,742,Wunderground v.1.15,2013-03-07 20:15:00,
2013-03-07 13:20:00,59.4,20.5,29.86,SSW,201,5.0,5.0,22,0.00,,,0.00,737,Wunderground v.1.15,2013-03-07 20:20:00,
2013-03-07 13:25:00,58.5,17.5,29.86,SSW,209,6.0,7.0,20,0.00,,,0.00,735,Wunderground v.1.15,2013-03-07 20:25:00,
2013-03-07 13:35:00,60.0,16.3,29.85,SE,137,4.0,11.0,18,0.00,,,0.00,729,Wunderground v.1.15,2013-03-07 20:35:00,
2013-03-07 13:45:00,59.8,17.4,29.85,WSW,239,5.0,11.0,19,0.00,,,0.00,710,Wunderground v.1.15,2013-03-07 20:45:00,
2013-03-07 13:55:00,59.7,19.6,29.85,SW,227,5.0,7.0,21,0.00,,,0.00,698,Wunderground v.1.15,2013-03-07 20:55:00,
2013-03-07 14:00:00,60.6,16.8,29.85,SSW,197,4.0,4.0,18,0.00,,,0.00,687,Wunderground v.1.15,2013-03-07 21:00:00,
2013-03-07 14:10:00,59.3,17.0,29.85,SW,217,5.0,5.0,19,0.00,,,0.00,671,Wunderground v.1.15,2013-03-07 21:10:00,
2013-03-07 14:20:00,60.0,16.3,29.84,SW,222,5.0,11.0,18,0.00,,,0.00,654,Wunderground v.1.15,2013-03-07 21:20:00,
2013-03-07 14:30:00,59.8,16.1,29.84,SW,224,6.0,6.0,18,0.00,,,0.00,635,Wunderground v.1.15,2013-03-07 21:30:00,
2013-03-07 14:35:00,60.4,13.9,29.84,South,181,4.0,11.0,16,0.00,,,0.00,622,Wunderground v.1.15,2013-03-07 21:35:00,
2013-03-07 14:45:00,61.7,13.5,29.84,SW,223,4.0,11.0,15,0.00,,,0.00,603,Wunderground v.1.15,2013-03-07 21:45:00,
2013-03-07 14:50:00,61.6,14.9,29.84,SSW,192,3.0,3.0,16,0.00,,,0.00,592,Wunderground v.1.15,2013-03-07 21:50:00,
2013-03-07 15:00:00,61.4,14.7,29.83,SSW,213,5.0,11.0,16,0.00,,,0.00,568,Wunderground v.1.15,2013-03-07 22:00:00,
2013-03-07 15:05:00,61.5,11.8,29.83,SSW,213,7.0,11.0,14,0.00,,,0.00,555,Wunderground v.1.15,2013-03-07 22:05:00,
2013-03-07 15:15:00,61.6,13.4,29.83,SW,220,7.0,8.0,15,0.00,,,0.00,527,Wunderground v.1.15,2013-03-07 22:15:00,
2013-03-07 15:25:00,62.2,12.3,29.83,SW,228,6.0,6.0,14,0.00,,,0.00,512,Wunderground v.1.15,2013-03-07 22:25:00,
2013-03-07 15:30:00,61.1,9.8,29.83,SSW,195,7.0,7.0,13,0.00,,,0.00,494,Wunderground v.1.15,2013-03-07 22:30:00,
2013-03-07 15:35:00,62.3,12.4,29.83,SSW,206,7.0,7.0,14,0.00,,,0.00,482,Wunderground v.1.15,2013-03-07 22:35:00,
2013-03-07 15:45:00,60.8,15.6,29.83,SW,214,7.0,10.0,17,0.00,,,0.00,450,Wunderground v.1.15,2013-03-07 22:45:00,
2013-03-07 15:55:00,60.5,12.5,29.83,SW,217,7.0,8.0,15,0.00,,,0.00,424,Wunderground v.1.15,2013-03-07 22:55:00,
2013-03-07 16:05:00,60.8,15.6,29.83,SW,227,6.0,12.0,17,0.00,,,0.00,388,Wunderground v.1.15,2013-03-07 23:05:00,
2013-03-07 16:15:00,60.2,12.3,29.83,SW,215,6.0,12.0,15,0.00,,,0.00,355,Wunderground v.1.15,2013-03-07 23:15:00,
2013-03-07 16:25:00,60.4,12.5,29.83,SW,225,6.0,12.0,15,0.00,,,0.00,323,Wunderground v.1.15,2013-03-07 23:25:00,
2013-03-07 16:35:00,60.7,14.2,29.82,SW,224,5.0,12.0,16,0.00,,,0.00,287,Wunderground v.1.15,2013-03-07 23:35:00,
2013-03-07 16:40:00,60.6,12.6,29.83,WSW,245,5.0,5.0,15,0.00,,,0.00,272,Wunderground v.1.15,2013-03-07 23:40:00,
2013-03-07 16:50:00,59.8,21.9,29.82,South,191,3.0,12.0,23,0.00,,,0.00,227,Wunderground v.1.15,2013-03-07 23:50:00,
2013-03-07 16:55:00,59.3,17.0,29.82,SW,219,4.0,12.0,19,0.00,,,0.00,202,Wunderground v.1.15,2013-03-07 23:55:00,
2013-03-07 17:05:00,58.9,17.8,29.82,SW,218,2.0,12.0,20,0.00,,,0.00,35,Wunderground v.1.15,2013-03-08 00:05:00,
2013-03-07 17:15:00,57.0,16.3,29.82,SW,218,1.0,12.0,20,0.00,,,0.00,30,Wunderground v.1.15,2013-03-08 00:15:00,
2013-03-07 17:20:00,56.5,17.0,29.82,SW,218,0.0,12.0,21,0.00,,,0.00,28,Wunderground v.1.15,2013-03-08 00:20:00,
2013-03-07 17:25:00,56.3,19.9,29.83,SW,218,1.0,12.0,24,0.00,,,0.00,26,Wunderground v.1.15,2013-03-08 00:25:00,
2013-03-07 17:35:00,55.2,17.0,29.83,SW,218,1.0,12.0,22,0.00,,,0.00,21,Wunderground v.1.15,2013-03-08 00:35:00,
2013-03-07 17:45:00,54.1,28.4,29.83,ENE,64,1.0,12.0,37,0.00,,,0.00,16,Wunderground v.1.15,2013-03-08 00:45:00,
2013-03-07 17:55:00,52.0,24.5,29.83,ENE,68,2.0,12.0,34,0.00,,,0.00,11,Wunderground v.1.15,2013-03-08 00:55:00,
2013-03-07 18:10:00,49.8,25.8,29.83,ENE,62,3.0,3.0,39,0.00,,,0.00,0,Wunderground v.1.15,2013-03-08 01:10:00,
2013-03-07 18:20:00,49.6,26.2,29.84,East,79,2.0,2.0,40,0.00,,,0.00,0,Wunderground v.1.15,2013-03-08 01:20:00,
2013-03-07 18:30:00,49.1,25.2,29.84,East,80,1.0,1.0,39,0.00,,,0.00,0,Wunderground v.1.15,2013-03-08 01:30:00,
2013-03-07 18:40:00,48.3,25.1,29.85,ENE,65,3.0,3.0,40,0.00,,,0.00,0,Wunderground v.1.15,2013-03-08 01:40:00,
2013-03-07 18:50:00,47.9,25.9,29.85,ENE,68,2.0,4.0,42,0.00,,,0.00,0,Wunderground v.1.15,2013-03-08 01:50:00,
2013-03-07 18:55:00,47.6,23.8,29.85,ENE,61,3.0,4.0,39,0.00,,,0.00,0,Wunderground v.1.15,2013-03-08 01:55:00,
2013-03-07 19:05:00,47.1,23.4,29.86,ENE,72,2.0,4.0,39,0.00,,,0.00,0,Wunderground v.1.15,2013-03-08 02:05:00,
2013-03-07 19:10:00,47.0,23.9,29.86,ENE,72,1.0,1.0,40,0.00,,,0.00,0,Wunderground v.1.15,2013-03-08 02:10:00,
2013-03-07 19:20:00,46.6,22.9,29.86,ENE,72,0.0,7.0,39,0.00,,,0.00,0,Wunderground v.1.15,2013-03-08 02:20:00,
2013-03-07 19:30:00,45.7,25.5,29.86,ENE,71,0.0,7.0,45,0.00,,,0.00,0,Wunderground v.1.15,2013-03-08 02:30:00,
2013-03-07 19:35:00,45.1,25.0,29.87,ENE,73,0.0,7.0,45,0.00,,,0.00,0,Wunderground v.1.15,2013-03-08 02:35:00,
2013-03-07 19:45:00,44.1,28.0,29.87,ENE,74,1.0,7.0,53,0.00,,,0.00,0,Wunderground v.1.15,2013-03-08 02:45:00,
2013-03-07 19:55:00,43.3,27.8,29.87,NE,55,2.0,7.0,54,0.00,,,0.00,0,Wunderground v.1.15,2013-03-08 02:55:00,
2013-03-07 20:05:00,42.9,28.7,29.87,ENE,64,2.0,7.0,57,0.00,,,0.00,0,Wunderground v.1.15,2013-03-08 03:05:00,
2013-03-07 20:15:00,42.5,27.9,29.88,ENE,73,2.0,7.0,56,0.00,,,0.00,0,Wunderground v.1.15,2013-03-08 03:15:00,
2013-03-07 20:20:00,42.3,29.4,29.88,ENE,68,2.0,7.0,60,0.00,,,0.00,0,Wunderground v.1.15,2013-03-08 03:20:00,
2013-03-07 20:30:00,42.0,27.4,29.88,ENE,78,1.0,1.0,56,0.00,,,0.00,0,Wunderground v.1.15,2013-03-08 03:30:00,
2013-03-07 20:35:00,41.6,25.7,29.88,ENE,78,1.0,7.0,53,0.00,,,0.00,0,Wunderground v.1.15,2013-03-08 03:35:00,
2013-03-07 20:40:00,41.4,24.1,29.88,ENE,78,0.0,7.0,50,0.00,,,0.00,0,Wunderground v.1.15,2013-03-08 03:40:00,
2013-03-07 20:50:00,41.5,28.6,29.89,ENE,78,1.0,1.0,60,0.00,,,0.00,0,Wunderground v.1.15,2013-03-08 03:50:00,
2013-03-07 21:00:00,41.1,27.0,29.89,ENE,78,0.0,7.0,57,0.00,,,0.00,0,Wunderground v.1.15,2013-03-08 04:00:00,
2013-03-07 21:05:00,41.1,27.9,29.89,NE,45,1.0,7.0,59,0.00,,,0.00,0,Wunderground v.1.15,2013-03-08 04:05:00,
2013-03-07 21:15:00,40.7,26.2,29.89,NE,50,0.0,1.0,56,0.00,,,0.00,0,Wunderground v.1.15,2013-03-08 04:15:00,
2013-03-07 21:20:00,40.4,24.6,29.90,NE,50,0.0,0.0,53,0.00,,,0.00,0,Wunderground v.1.15,2013-03-08 04:20:00,
2013-03-07 21:25:00,40.3,24.5,29.90,NE,50,0.0,0.0,53,0.00,,,0.00,0,Wunderground v.1.15,2013-03-08 04:25:00,
2013-03-07 21:35:00,40.2,26.2,29.90,NE,50,0.0,0.0,57,0.00,,,0.00,0,Wunderground v.1.15,2013-03-08 04:35:00,
2013-03-07 21:40:00,40.2,26.6,29.90,NE,50,0.0,0.0,58,0.00,,,0.00,0,Wunderground v.1.15,2013-03-08 04:40:00,
2013-03-07 21:50:00,39.5,25.5,29.90,NE,50,0.0,0.0,57,0.00,,,0.00,0,Wunderground v.1.15,2013-03-08 04:50:00,
2013-03-07 21:55:00,39.6,26.8,29.90,ENE,65,1.0,3.0,60,0.00,,,0.00,0,Wunderground v.1.15,2013-03-08 04:55:00,
2013-03-07 22:00:00,39.3,25.7,29.90,ENE,64,2.0,3.0,58,0.00,,,0.00,0,Wunderground v.1.15,2013-03-08 05:00:00,
2013-03-07 22:05:00,39.8,28.2,29.91,ENE,67,2.0,5.0,63,0.00,,,0.00,0,Wunderground v.1.15,2013-03-08 05:05:00,
2013-03-07 22:15:00,39.2,25.6,29.91,ENE,59,1.0,5.0,58,0.00,,,0.00,0,Wunderground v.1.15,2013-03-08 05:15:00,
2013-03-07 22:20:00,39.5,27.5,29.91,ENE,68,1.0,5.0,62,0.00,,,0.00,0,Wunderground v.1.15,2013-03-08 05:20:00,
2013-03-07 22:25:00,39.4,26.2,29.91,ENE,58,2.0,5.0,59,0.00,,,0.00,0,Wunderground v.1.15,2013-03-08 05:25:00,
2013-03-07 22:35:00,39.8,27.0,29.91,ENE,78,3.0,5.0,60,0.00,,,0.00,0,Wunderground v.1.15,2013-03-08 05:35:00,
2013-03-07 22:45:00,39.0,27.5,29.91,East,83,4.0,5.0,63,0.00,,,0.00,0,Wunderground v.1.15,2013-03-08 05:45:00,
2013-03-07 22:50:00,39.0,26.7,29.90,East,83,2.0,5.0,61,0.00,,,0.00,0,Wunderground v.1.15,2013-03-08 05:50:00,
2013-03-07 22:55:00,39.1,26.8,29.90,East,81,1.0,5.0,61,0.00,,,0.00,0,Wunderground v.1.15,2013-03-08 05:55:00,
2013-03-07 23:00:00,39.3,26.2,29.90,ENE,65,1.0,7.0,59,0.00,,,0.00,0,Wunderground v.1.15,2013-03-08 06:00:00,
2013-03-07 23:05:00,39.9,27.1,29.90,East,79,2.0,7.0,60,0.00,,,0.00,0,Wunderground v.1.15,2013-03-08 06:05:00,
2013-03-07 23:15:00,39.6,27.2,29.90,ENE,57,4.0,4.0,61,0.00,,,0.00,0,Wunderground v.1.15,2013-03-08 06:15:00,
2013-03-07 23:25:00,39.1,26.0,29.90,ENE,73,4.0,5.0,59,0.00,,,0.00,0,Wunderground v.1.15,2013-03-08 06:25:00,
2013-03-07 23:35:00,39.0,25.5,29.90,East,80,3.0,5.0,58,0.00,,,0.00,0,Wunderground v.1.15,2013-03-08 06:35:00,
2013-03-07 23:45:00,39.4,26.7,29.90,NE,44,2.0,4.0,60,0.00,,,0.00,0,Wunderground v.1.15,2013-03-08 06:45:00,
2013-03-07 23:55:00,38.8,27.7,29.90,ENE,69,3.0,5.0,64,0.00,,,0.00,0,Wunderground v.1.15,2013-03-08 06:55:00,